Aérodrome :
LOGIN :

S'inscrire | Disclaimer

   EN    FR    IT 

 










Légende :    VFR   VFR Marginal   IFR   IFR Intensif   IFR Très Intensif
Visi : 
Plafond : 
>= 8 km
>= 3000ft
5 à 8 km
1000 à 3000 ft
1500m à 5 km
500 à 1000 ft
800 à 1500m
200 à 500 ft
< 800m
< 200 ft
Symboles :   Orages  Brouillard  Fortes neiges  Fortes précipitations  Vent > 20 kt
SIGMETs :   Divers  Orages  Givrage  Turbulence  Onde Orograph.  Cendres Volcan.







- Altitude de l'aérodrome : 407 ft


EGDM - MoD Boscombe Down Amesbury

DERNIER METAR :
  • 230650Z 28017KT 9999 SCT010 SCT018 BKN030 07/06 Q0993 GRN

METARs EXPIRÉS :
  • 230550Z AUTO 28020KT 9999 -DZ FEW008/// SCT010/// BKN017/// 09/08 Q0990
  • 230450Z AUTO 23016KT 9999 BKN014/// 12/10 Q0988

Prévision TAF périmée.
Pas de NOTAMs connus pour ce terrain.
1 SIGMET publié pour la FIR London (EGTT) :
 
Turbulence forte
EGTT SIGMET 02 VALID 230600/231000 EGRR
EGTT LONDON FIR SEV TURB FCST E OF LINE N5000 W00015 - N5500 E00258 SFC/FL060 MOV E 20KT WKN=



MET'MAP, la Météo Aéronautique d'un coup d'oeil ! - Copyright ORBIFLY Décembre 2007 - Disclaimer

ORBIFLY MET'MAP TEAM :

Programmation & Développement : Alexandra Zaïnal
Conception & Développement : Baudouin d'Aumeries
Co-Programmation & Développement : Marc-Olivier Méhu
Soutien technique & logistique : Manuel Goepfert

Contact : metmap@orbifly.com




SOURCES & CREDITS :

   NOAA